createdAt,value
2023-09-09T00:05:12.190Z,18.8
2023-09-09T00:18:12.218Z,18.5
2023-09-09T00:31:12.208Z,18.3
2023-09-09T00:44:12.226Z,18.2
2023-09-09T00:57:12.251Z,18.0
2023-09-09T01:10:12.306Z,17.7
2023-09-09T01:23:12.270Z,17.8
2023-09-09T01:36:12.314Z,17.9
2023-09-09T01:49:12.362Z,17.4
2023-09-09T02:02:12.304Z,17.7
2023-09-09T02:15:12.440Z,17.4
2023-09-09T02:28:12.355Z,17.6
2023-09-09T02:41:12.369Z,17.2
2023-09-09T02:54:12.391Z,17.1
2023-09-09T03:07:12.410Z,17.1
2023-09-09T03:20:12.445Z,16.7
2023-09-09T03:33:12.461Z,16.8
2023-09-09T03:46:12.449Z,16.5
2023-09-09T03:59:12.467Z,16.0
2023-09-09T04:12:12.565Z,15.9
2023-09-09T04:25:12.506Z,16.3
2023-09-09T04:38:12.510Z,16.2
2023-09-09T04:51:12.568Z,16.2
2023-09-09T05:04:12.556Z,16.3
2023-09-09T05:17:12.569Z,16.3
2023-09-09T05:30:12.530Z,16.3
2023-09-09T05:43:12.577Z,16.5
2023-09-09T05:56:12.603Z,17.0
2023-09-09T06:09:12.600Z,17.9
2023-09-09T06:22:12.565Z,18.3
2023-09-09T06:35:12.567Z,18.8
2023-09-09T06:48:12.639Z,20.0
2023-09-09T07:01:12.591Z,22.1
2023-09-09T07:14:12.667Z,24.1
2023-09-09T07:27:12.626Z,26.6
2023-09-09T07:40:12.643Z,28.4
2023-09-09T07:53:12.639Z,30.3
2023-09-09T08:06:12.655Z,30.7
2023-09-09T08:19:12.760Z,30.2
2023-09-09T08:32:12.701Z,29.6
2023-09-09T08:45:12.661Z,30.5
2023-09-09T08:58:12.675Z,30.3
2023-09-09T09:11:23.532Z,30.3
2023-09-09T09:24:12.698Z,31.7
2023-09-09T09:37:12.692Z,31.4
2023-09-09T09:50:12.731Z,31.8
2023-09-09T10:03:12.794Z,31.2
2023-09-09T10:16:12.794Z,31.2
2023-09-09T10:29:12.766Z,30.7
2023-09-09T10:42:12.743Z,30.7
2023-09-09T10:55:12.804Z,30.4
2023-09-09T11:08:12.765Z,31.1
2023-09-09T11:21:12.767Z,31.6
2023-09-09T11:34:12.779Z,31.5
2023-09-09T11:47:12.770Z,31.9
2023-09-09T12:00:12.796Z,32.3
2023-09-09T12:13:12.795Z,32.3
2023-09-09T12:26:12.807Z,33.1
2023-09-09T12:39:12.807Z,32.2
2023-09-09T12:52:12.824Z,33.2
2023-09-09T13:05:12.882Z,33.1
2023-09-09T13:18:12.883Z,32.7
2023-09-09T13:31:12.890Z,33.7
2023-09-09T13:44:12.907Z,33.6
2023-09-09T13:57:12.912Z,33.2
2023-09-09T14:10:13.288Z,33.6
2023-09-09T14:23:13.068Z,34.5
2023-09-09T14:36:12.993Z,33.7
2023-09-09T14:49:13.050Z,32.8
2023-09-09T15:02:13.039Z,32.8
2023-09-09T15:15:12.996Z,32.6
2023-09-09T15:28:13.015Z,31.6
2023-09-09T15:41:13.081Z,31.2
2023-09-09T15:54:13.053Z,30.8
2023-09-09T16:07:13.046Z,29.9
2023-09-09T16:20:13.175Z,27.9
2023-09-09T16:33:13.110Z,26.8
2023-09-09T16:46:13.144Z,25.7
2023-09-09T16:59:13.208Z,24.8
2023-09-09T17:12:13.128Z,24.3
2023-09-09T17:25:13.131Z,23.8
2023-09-09T17:38:13.143Z,23.2
2023-09-09T17:51:13.151Z,22.7
2023-09-09T18:04:13.253Z,22.0
2023-09-09T18:17:13.282Z,21.0
2023-09-09T18:30:13.238Z,20.6
2023-09-09T18:43:13.292Z,20.3
2023-09-09T18:56:13.291Z,19.8
2023-09-09T19:09:13.292Z,19.6
2023-09-09T19:22:13.264Z,19.3
2023-09-09T19:35:13.318Z,19.3
2023-09-09T19:48:13.327Z,19.3
2023-09-09T20:01:13.340Z,19.4
2023-09-09T20:14:13.312Z,19.3
2023-09-09T20:27:13.398Z,19.2
2023-09-09T20:40:13.473Z,19.1
2023-09-09T20:53:13.378Z,18.8
2023-09-09T21:06:13.417Z,18.5
2023-09-09T21:19:13.439Z,18.5
2023-09-09T21:32:13.717Z,18.4
2023-09-09T21:45:13.502Z,18.2
2023-09-09T21:58:13.528Z,18.0
2023-09-09T22:11:13.504Z,18.1
2023-09-09T22:24:13.517Z,18.1
2023-09-09T22:37:13.500Z,18.1
2023-09-09T22:50:13.553Z,19.6
2023-09-09T23:03:13.634Z,20.1
2023-09-09T23:16:13.564Z,19.7
2023-09-09T23:29:13.678Z,18.6
2023-09-09T23:42:13.583Z,17.7
2023-09-09T23:55:13.554Z,17.4
